Portada
METAR-TAF:

METAR-TAF

Aeroports :

Foz do Iguaçu, Paranà, Brasil

latitud: 25-31S, longitud: 054-35W, altitud: 180 m

Observació

L'informe es va fer fa 37 minuts, a les 23:00 UTC
Vent 4 kt del Sud/Sud-Oest
Temperatura 23°C
Humitat 57%
Pressió 1015 hPa
Visibilitat 10 km o més
sense núvols per sota de 1500 mi sense presència de cumulonimbus.

METAR: SBFI 212300Z 20004KT CAVOK 23/14 Q1015

Hora: 20:37 (23:37 UTC)

Pronòstic

L'informe es va fer fa 7 hores i 37 minuts, a les 16:00 UTC
Pronòstic vàlid del 21 a les 18 UTC al 22 a les 18 UTC
Vent 12 kt del Sud
Visibilitat 10 km o més
Escasses núvols a una alçada de 4000 ft
Evolucionant progressivament
l' 22 a les 00 UTC al 22 a les 01 UTC
Vent 8 kt del Sud/Sud-Oest
Visibilitat 10 km o més
sense núvols per sota de 1500 mi sense presència de cumulonimbus.

TAF: SBFI 211600Z 2118/2218 18012KT 9999 FEW040 TX31/2118Z TN14/2208Z BECMG 2200/2201 20008KT CAVOK RMK PEB

Observacions i pronòstics meteorològics de més de 4000 aeroports (METAR i TAF).

Les estacions disponibles són els punts grocs i vermells al mapa.

Posi el ratolí al punt desitjat per veure el nom de l'estació.

Feu clic per veure les observacions i els pronòstics meteorològics.

Per canviar el mapa: feu clic els botons verds amb una creu de color negre per apropar; al botó verd amb un guió per allunyar la imatge; o en les fletxes verdes per a mapes adjacents.


METAR-TAF: